createdAt,value
2017-10-02T00:00:57.565Z,12.42
2017-10-02T00:01:58.004Z,12.50
2017-10-02T00:02:58.425Z,12.43
2017-10-02T00:03:58.851Z,12.49
2017-10-02T00:04:59.280Z,12.43
2017-10-02T00:05:59.708Z,12.42
2017-10-02T00:07:00.143Z,12.47
2017-10-02T00:08:00.568Z,12.46
2017-10-02T00:09:01.000Z,12.45
2017-10-02T00:10:01.427Z,12.43
2017-10-02T00:11:01.861Z,12.46
2017-10-02T00:12:02.289Z,12.49
2017-10-02T00:13:02.717Z,12.50
2017-10-02T00:14:03.151Z,12.47
2017-10-02T00:15:03.575Z,12.49
2017-10-02T00:16:04.008Z,12.40
2017-10-02T00:17:04.435Z,12.42
2017-10-02T00:18:04.859Z,12.40
2017-10-02T00:19:05.319Z,12.49
2017-10-02T00:20:05.726Z,12.45
2017-10-02T00:21:06.152Z,12.39
2017-10-02T00:22:06.579Z,12.49
2017-10-02T00:23:07.008Z,12.49
2017-10-02T00:24:07.439Z,12.43
2017-10-02T00:25:07.875Z,12.50
2017-10-02T00:26:08.297Z,12.47
2017-10-02T00:27:08.726Z,12.39
2017-10-02T00:28:09.156Z,12.46
2017-10-02T00:29:09.588Z,12.42
2017-10-02T00:30:10.013Z,12.43
2017-10-02T00:31:10.439Z,12.45
2017-10-02T00:32:10.873Z,12.49
2017-10-02T00:33:11.300Z,12.45
2017-10-02T00:34:11.730Z,12.42
2017-10-02T00:35:12.159Z,12.43
2017-10-02T00:36:12.584Z,12.45
2017-10-02T00:37:13.018Z,12.40
2017-10-02T00:38:13.447Z,12.40
2017-10-02T00:39:13.874Z,12.40
2017-10-02T00:40:14.304Z,12.40
2017-10-02T00:41:14.739Z,12.39
2017-10-02T00:42:15.164Z,12.39
2017-10-02T00:43:15.593Z,12.39
2017-10-02T00:44:16.018Z,12.32
2017-10-02T00:45:16.451Z,12.31
2017-10-02T00:46:16.879Z,12.31
2017-10-02T00:47:17.314Z,12.39
2017-10-02T00:48:17.740Z,12.32
2017-10-02T00:49:18.169Z,12.28
2017-10-02T00:50:18.610Z,12.32
2017-10-02T00:51:19.025Z,12.28
2017-10-02T00:52:19.455Z,12.25
2017-10-02T00:53:19.882Z,12.24
2017-10-02T00:54:20.311Z,12.32
2017-10-02T00:55:20.748Z,12.25
2017-10-02T00:56:21.171Z,12.25
2017-10-02T00:57:21.600Z,12.25
2017-10-02T00:58:22.035Z,12.25
2017-10-02T00:59:22.460Z,12.25
2017-10-02T01:00:22.887Z,12.25
2017-10-02T01:01:23.318Z,12.20
2017-10-02T01:02:23.748Z,12.18
2017-10-02T01:03:24.177Z,12.18
2017-10-02T01:04:24.604Z,12.15
2017-10-02T01:05:25.030Z,12.07
2017-10-02T01:06:25.456Z,12.17
2017-10-02T01:07:25.889Z,12.02
2017-10-02T01:08:26.317Z,12.12
2017-10-02T01:09:26.758Z,12.07
2017-10-02T01:10:27.174Z,12.12
2017-10-02T01:11:27.617Z,12.09
2017-10-02T01:12:28.034Z,12.06
2017-10-02T01:13:28.465Z,12.06
2017-10-02T01:14:28.888Z,12.09
2017-10-02T01:15:29.322Z,12.06
2017-10-02T01:16:29.746Z,12.06
2017-10-02T01:17:30.175Z,11.99
2017-10-02T01:18:30.603Z,11.97
2017-10-02T01:19:31.031Z,12.12
2017-10-02T01:20:31.470Z,12.07
2017-10-02T01:21:31.894Z,11.95
2017-10-02T01:22:32.320Z,12.07
2017-10-02T01:23:32.751Z,12.00
2017-10-02T01:24:33.176Z,12.00
2017-10-02T01:25:33.606Z,11.88
2017-10-02T01:26:34.033Z,11.87
2017-10-02T01:27:34.466Z,11.90
2017-10-02T01:28:34.898Z,11.84
2017-10-02T01:29:35.321Z,11.95
2017-10-02T01:30:35.748Z,11.86
2017-10-02T01:31:36.179Z,11.86
2017-10-02T01:32:36.606Z,11.86
2017-10-02T01:33:37.043Z,11.88
2017-10-02T01:34:37.467Z,11.84
2017-10-02T01:35:37.896Z,11.83
2017-10-02T01:36:38.324Z,11.90
2017-10-02T01:37:38.751Z,11.83
2017-10-02T01:38:39.179Z,11.78
2017-10-02T01:39:39.611Z,11.86
2017-10-02T01:40:40.037Z,11.78
2017-10-02T01:41:40.475Z,11.81
2017-10-02T01:42:40.904Z,11.80
2017-10-02T01:43:41.324Z,11.72
2017-10-02T01:44:41.757Z,11.75
2017-10-02T01:45:42.180Z,11.73
2017-10-02T01:46:42.613Z,11.77
2017-10-02T01:47:43.033Z,11.72
2017-10-02T01:48:43.467Z,11.80
2017-10-02T01:49:43.891Z,11.81
2017-10-02T01:50:44.323Z,11.78
2017-10-02T01:51:44.750Z,11.80
2017-10-02T01:52:45.177Z,11.72
2017-10-02T01:53:45.604Z,11.81
2017-10-02T01:54:46.035Z,11.73
2017-10-02T01:55:46.469Z,11.72
2017-10-02T01:56:46.896Z,11.65
2017-10-02T01:57:47.319Z,11.73
2017-10-02T01:58:47.756Z,11.73
2017-10-02T01:59:48.172Z,11.78
2017-10-02T02:00:48.605Z,11.72
2017-10-02T02:01:49.035Z,11.70
2017-10-02T02:02:49.466Z,11.69
2017-10-02T02:03:49.890Z,11.68
2017-10-02T02:04:50.316Z,11.69
2017-10-02T02:05:50.743Z,11.68
2017-10-02T02:06:51.170Z,11.70
2017-10-02T02:07:51.598Z,11.69
2017-10-02T02:08:52.025Z,11.68
2017-10-02T02:09:52.456Z,11.63
2017-10-02T02:10:52.886Z,11.73
2017-10-02T02:11:53.315Z,11.72
2017-10-02T02:12:53.742Z,11.65
2017-10-02T02:13:54.173Z,11.68
2017-10-02T02:14:54.599Z,11.72
2017-10-02T02:15:55.024Z,11.68
2017-10-02T02:16:55.453Z,11.68
2017-10-02T02:17:55.881Z,11.69
2017-10-02T02:18:56.312Z,11.68
2017-10-02T02:19:56.737Z,11.70
2017-10-02T02:20:57.165Z,11.65
2017-10-02T02:21:57.594Z,11.63
2017-10-02T02:22:58.025Z,11.73
2017-10-02T02:23:58.452Z,11.73
2017-10-02T02:24:58.882Z,11.70
2017-10-02T02:25:59.304Z,11.68
2017-10-02T02:26:59.737Z,11.65
2017-10-02T02:28:00.165Z,11.63
2017-10-02T02:29:00.594Z,11.68
2017-10-02T02:30:01.020Z,11.68
2017-10-02T02:31:01.447Z,11.60
2017-10-02T02:32:01.879Z,11.66
2017-10-02T02:33:02.309Z,11.60
2017-10-02T02:34:02.732Z,11.62
2017-10-02T02:35:03.157Z,11.63
2017-10-02T02:36:03.587Z,11.62
2017-10-02T02:37:04.016Z,11.62
2017-10-02T02:38:04.445Z,11.62
2017-10-02T02:39:04.884Z,11.63
2017-10-02T02:40:05.310Z,11.63
2017-10-02T02:41:05.726Z,11.52
2017-10-02T02:42:06.159Z,11.55
2017-10-02T02:43:06.586Z,11.60
2017-10-02T02:44:07.013Z,11.59
2017-10-02T02:45:07.447Z,11.59
2017-10-02T02:46:07.865Z,11.54
2017-10-02T02:47:08.293Z,11.57
2017-10-02T02:48:08.727Z,11.55
2017-10-02T02:49:09.176Z,11.63
2017-10-02T02:50:09.579Z,11.57
2017-10-02T02:51:10.017Z,11.50
2017-10-02T02:52:10.441Z,11.57
2017-10-02T02:53:10.867Z,11.60
2017-10-02T02:54:11.294Z,11.54
2017-10-02T02:55:11.718Z,11.55
2017-10-02T02:56:12.158Z,11.52
2017-10-02T02:57:12.579Z,11.54
2017-10-02T02:58:13.005Z,11.51
2017-10-02T02:59:13.438Z,11.55
2017-10-02T03:00:13.863Z,11.52
2017-10-02T03:01:14.287Z,11.54
2017-10-02T03:02:14.715Z,11.51
2017-10-02T03:03:15.142Z,11.50
2017-10-02T03:04:15.576Z,11.48
2017-10-02T03:05:16.000Z,11.51
2017-10-02T03:06:16.430Z,11.44
2017-10-02T03:07:16.855Z,11.51
2017-10-02T03:08:17.283Z,11.55
2017-10-02T03:09:17.707Z,11.48
2017-10-02T03:10:18.138Z,11.47
2017-10-02T03:11:18.567Z,11.52
2017-10-02T03:12:18.993Z,11.51
2017-10-02T03:13:19.426Z,11.52
2017-10-02T03:14:19.851Z,11.52
2017-10-02T03:15:20.279Z,11.52
2017-10-02T03:16:20.706Z,11.48
2017-10-02T03:17:21.130Z,11.50
2017-10-02T03:18:21.561Z,11.52
2017-10-02T03:19:21.990Z,11.45
2017-10-02T03:20:22.427Z,11.44
2017-10-02T03:21:22.848Z,11.43
2017-10-02T03:22:23.270Z,11.36
2017-10-02T03:23:23.700Z,11.47
2017-10-02T03:24:24.129Z,11.35
2017-10-02T03:25:24.556Z,11.41
2017-10-02T03:26:24.987Z,11.41
2017-10-02T03:27:25.414Z,11.33
2017-10-02T03:28:25.843Z,11.35
2017-10-02T03:29:26.265Z,11.43
2017-10-02T03:30:26.702Z,11.43
2017-10-02T03:31:27.153Z,11.33
2017-10-02T03:32:27.583Z,11.32
2017-10-02T03:33:27.993Z,11.35
2017-10-02T03:34:28.423Z,11.26
2017-10-02T03:35:28.866Z,11.37
2017-10-02T03:36:29.287Z,11.33
2017-10-02T03:37:29.697Z,11.32
2017-10-02T03:38:30.124Z,11.35
2017-10-02T03:39:30.545Z,11.36
2017-10-02T03:40:30.977Z,11.27
2017-10-02T03:41:31.409Z,11.33
2017-10-02T03:42:31.826Z,11.29
2017-10-02T03:43:32.268Z,11.35
2017-10-02T03:44:32.683Z,11.32
2017-10-02T03:45:33.120Z,11.33
2017-10-02T03:46:33.543Z,11.29
2017-10-02T03:47:33.968Z,11.33
2017-10-02T03:48:34.398Z,11.23
2017-10-02T03:49:34.825Z,11.33
2017-10-02T03:50:35.255Z,11.30
2017-10-02T03:51:35.684Z,11.40
2017-10-02T03:52:36.106Z,11.29
2017-10-02T03:53:36.535Z,11.25
2017-10-02T03:54:36.968Z,11.23
2017-10-02T03:55:37.390Z,11.26
2017-10-02T03:56:37.822Z,11.26
2017-10-02T03:57:38.252Z,11.22
2017-10-02T03:58:38.676Z,11.32
2017-10-02T03:59:39.105Z,11.33
2017-10-02T04:00:39.530Z,11.40
2017-10-02T04:01:39.963Z,11.33
2017-10-02T04:02:40.387Z,11.40
2017-10-02T04:03:40.840Z,11.22
2017-10-02T04:04:41.240Z,11.30
2017-10-02T04:05:41.665Z,11.29
2017-10-02T04:06:42.099Z,11.32
2017-10-02T04:07:42.522Z,11.33
2017-10-02T04:08:42.953Z,11.29
2017-10-02T04:09:43.379Z,11.32
2017-10-02T04:10:43.814Z,11.40
2017-10-02T04:11:44.233Z,11.35
2017-10-02T04:12:44.671Z,11.35
2017-10-02T04:13:45.097Z,11.35
2017-10-02T04:14:45.525Z,11.33
2017-10-02T04:15:45.949Z,11.33
2017-10-02T04:16:46.373Z,11.30
2017-10-02T04:17:46.802Z,11.29
2017-10-02T04:18:47.228Z,11.40
2017-10-02T04:19:47.652Z,11.23
2017-10-02T04:20:48.080Z,11.25
2017-10-02T04:21:48.509Z,11.29
2017-10-02T04:22:48.938Z,11.17
2017-10-02T04:23:49.362Z,11.25
2017-10-02T04:24:49.796Z,11.23
2017-10-02T04:25:50.221Z,11.22
2017-10-02T04:26:50.648Z,11.19
2017-10-02T04:27:51.073Z,11.26
2017-10-02T04:28:51.509Z,11.25
2017-10-02T04:29:51.932Z,11.26
2017-10-02T04:30:52.358Z,11.19
2017-10-02T04:31:52.787Z,11.30
2017-10-02T04:32:53.211Z,11.22
2017-10-02T04:33:53.642Z,11.23
2017-10-02T04:34:54.064Z,11.25
2017-10-02T04:35:54.497Z,11.23
2017-10-02T04:36:54.927Z,11.23
2017-10-02T04:37:55.350Z,11.41
2017-10-02T04:38:55.779Z,11.36
2017-10-02T04:39:56.203Z,11.26
2017-10-02T04:40:56.651Z,11.35
2017-10-02T04:41:57.059Z,11.36
2017-10-02T04:42:57.486Z,11.35
2017-10-02T04:43:57.913Z,11.35
2017-10-02T04:44:58.340Z,11.33
2017-10-02T04:45:58.769Z,11.33
2017-10-02T04:46:59.194Z,11.40
2017-10-02T04:47:59.622Z,11.36
2017-10-02T04:49:00.077Z,11.33
2017-10-02T04:50:00.481Z,11.36
2017-10-02T04:51:00.907Z,11.43
2017-10-02T04:52:01.335Z,11.40
2017-10-02T04:53:01.762Z,11.40
2017-10-02T04:54:02.188Z,11.40
2017-10-02T04:55:02.622Z,11.43
2017-10-02T04:56:03.042Z,11.41
2017-10-02T04:57:03.470Z,11.37
2017-10-02T04:58:03.900Z,11.44
2017-10-02T04:59:04.325Z,11.40
2017-10-02T05:00:04.756Z,11.43
2017-10-02T05:01:05.186Z,11.36
2017-10-02T05:02:05.609Z,11.43
2017-10-02T05:03:06.049Z,11.41
2017-10-02T05:04:06.466Z,11.44
2017-10-02T05:05:06.890Z,11.40
2017-10-02T05:06:07.319Z,11.44
2017-10-02T05:07:07.747Z,11.37
2017-10-02T05:08:08.173Z,11.43
2017-10-02T05:09:08.603Z,11.35
2017-10-02T05:10:09.027Z,11.41
2017-10-02T05:11:09.457Z,11.45
2017-10-02T05:12:09.887Z,11.47
2017-10-02T05:13:10.314Z,11.36
2017-10-02T05:14:10.745Z,11.45
2017-10-02T05:15:11.168Z,11.47
2017-10-02T05:16:11.595Z,11.40
2017-10-02T05:17:12.021Z,11.41
2017-10-02T05:18:12.457Z,11.41
2017-10-02T05:19:12.885Z,11.45
2017-10-02T05:20:13.302Z,11.37
2017-10-02T05:21:13.733Z,11.43
2017-10-02T05:22:14.162Z,11.41
2017-10-02T05:23:14.590Z,11.47
2017-10-02T05:24:15.018Z,11.44
2017-10-02T05:25:15.444Z,11.41
2017-10-02T05:26:15.868Z,11.52
2017-10-02T05:27:16.304Z,11.45
2017-10-02T05:28:16.735Z,11.50
2017-10-02T05:29:17.151Z,11.51
2017-10-02T05:30:17.580Z,11.50
2017-10-02T05:31:18.008Z,11.52
2017-10-02T05:32:18.439Z,11.51
2017-10-02T05:33:18.870Z,11.54
2017-10-02T05:34:19.295Z,11.57
2017-10-02T05:35:19.724Z,11.50
2017-10-02T05:36:20.150Z,11.54
2017-10-02T05:37:20.586Z,11.60
2017-10-02T05:38:21.002Z,11.50
2017-10-02T05:39:21.428Z,11.57
2017-10-02T05:40:21.854Z,11.66
2017-10-02T05:41:22.293Z,11.62
2017-10-02T05:42:22.711Z,11.68
2017-10-02T05:43:23.141Z,11.72
2017-10-02T05:44:23.569Z,11.77
2017-10-02T05:45:23.996Z,11.73
2017-10-02T05:46:24.427Z,11.75
2017-10-02T05:47:24.849Z,11.78
2017-10-02T05:48:25.284Z,11.84
2017-10-02T05:49:25.709Z,11.78
2017-10-02T05:50:26.133Z,11.78
2017-10-02T05:51:26.559Z,11.80
2017-10-02T05:52:26.989Z,11.86
2017-10-02T05:53:27.422Z,11.80
2017-10-02T05:54:27.850Z,11.84
2017-10-02T05:55:28.274Z,11.90
2017-10-02T05:56:28.705Z,11.83
2017-10-02T05:57:29.134Z,11.91
2017-10-02T05:58:29.560Z,11.86
2017-10-02T05:59:29.987Z,11.81
2017-10-02T06:00:30.416Z,11.86
2017-10-02T06:01:30.841Z,11.87
2017-10-02T06:02:31.279Z,11.88
2017-10-02T06:03:31.700Z,11.88
2017-10-02T06:04:32.127Z,11.84
2017-10-02T06:05:32.554Z,11.97
2017-10-02T06:06:32.982Z,11.83
2017-10-02T06:07:33.413Z,12.03
2017-10-02T06:08:33.897Z,11.97
2017-10-02T06:09:34.272Z,11.95
2017-10-02T06:10:34.708Z,12.00
2017-10-02T06:11:35.127Z,12.00
2017-10-02T06:12:35.553Z,12.04
2017-10-02T06:13:35.988Z,11.99
2017-10-02T06:14:37.096Z,12.06
2017-10-02T06:15:36.837Z,12.07
2017-10-02T06:16:37.266Z,12.03
2017-10-02T06:17:37.695Z,12.09
2017-10-02T06:18:38.120Z,12.13
2017-10-02T06:19:38.548Z,12.12
2017-10-02T06:20:38.978Z,12.07
2017-10-02T06:21:39.409Z,12.17
2017-10-02T06:22:39.848Z,12.24
2017-10-02T06:23:40.261Z,12.20
2017-10-02T06:24:40.693Z,12.27
2017-10-02T06:25:41.121Z,12.20
2017-10-02T06:26:41.549Z,12.25
2017-10-02T06:27:41.981Z,12.22
2017-10-02T06:28:42.408Z,12.29
2017-10-02T06:29:42.836Z,12.31
2017-10-02T06:30:43.264Z,12.36
2017-10-02T06:31:43.692Z,12.28
2017-10-02T06:32:44.119Z,12.39
2017-10-02T06:33:44.546Z,12.35
2017-10-02T06:34:44.979Z,12.45
2017-10-02T06:35:45.411Z,12.45
2017-10-02T06:36:45.847Z,12.58
2017-10-02T06:37:46.267Z,12.54
2017-10-02T06:38:46.692Z,12.57
2017-10-02T06:39:47.126Z,12.62
2017-10-02T06:40:47.551Z,12.58
2017-10-02T06:41:47.985Z,12.61
2017-10-02T06:42:48.410Z,12.62
2017-10-02T06:43:48.842Z,12.67
2017-10-02T06:44:49.268Z,12.72
2017-10-02T06:45:49.698Z,12.62
2017-10-02T06:46:50.126Z,12.79
2017-10-02T06:47:50.560Z,12.83
2017-10-02T06:48:50.988Z,12.82
2017-10-02T06:49:51.418Z,12.76
2017-10-02T06:50:51.846Z,12.83
2017-10-02T06:51:52.278Z,12.87
2017-10-02T06:52:52.704Z,12.90
2017-10-02T06:53:53.133Z,12.93
2017-10-02T06:54:53.564Z,12.91
2017-10-02T06:55:53.993Z,12.82
2017-10-02T06:56:54.422Z,12.95
2017-10-02T06:57:54.855Z,13.04
2017-10-02T06:58:55.285Z,13.18
2017-10-02T06:59:55.713Z,13.18
2017-10-02T07:00:56.141Z,12.98
2017-10-02T07:01:56.577Z,13.13
2017-10-02T07:02:57.006Z,13.27
2017-10-02T07:03:57.433Z,13.23
2017-10-02T07:04:57.867Z,13.20
2017-10-02T07:05:58.299Z,13.25
2017-10-02T07:06:58.726Z,13.31
2017-10-02T07:07:59.158Z,13.28
2017-10-02T07:08:59.586Z,13.33
2017-10-02T07:10:00.016Z,13.37
2017-10-02T07:11:00.449Z,13.35
2017-10-02T07:12:00.884Z,13.31
2017-10-02T07:13:01.321Z,13.37
2017-10-02T07:14:01.744Z,13.37
2017-10-02T07:15:02.169Z,13.41
2017-10-02T07:16:02.600Z,13.39
2017-10-02T07:17:03.030Z,13.47
2017-10-02T07:18:03.461Z,13.53
2017-10-02T07:19:03.889Z,13.57
2017-10-02T07:20:04.322Z,13.70
2017-10-02T07:21:04.752Z,13.65
2017-10-02T07:22:05.183Z,13.70
2017-10-02T07:23:05.614Z,13.72
2017-10-02T07:24:06.044Z,13.63
2017-10-02T07:25:06.473Z,13.72
2017-10-02T07:26:06.910Z,13.71
2017-10-02T07:27:07.330Z,13.72
2017-10-02T07:28:07.766Z,13.75
2017-10-02T07:29:09.122Z,13.78
2017-10-02T07:30:08.630Z,13.79
2017-10-02T07:31:09.063Z,13.72
2017-10-02T07:32:09.500Z,13.81
2017-10-02T07:33:09.920Z,13.87
2017-10-02T07:34:10.353Z,13.85
2017-10-02T07:35:10.784Z,13.92
2017-10-02T07:36:11.223Z,13.93
2017-10-02T07:37:11.647Z,13.93
2017-10-02T07:38:12.108Z,13.96
2017-10-02T07:39:12.511Z,13.90
2017-10-02T07:40:12.939Z,13.96
2017-10-02T07:41:13.373Z,13.99
2017-10-02T07:42:13.832Z,14.00
2017-10-02T07:43:14.237Z,14.07
2017-10-02T07:44:14.666Z,14.05
2017-10-02T07:45:15.103Z,14.10
2017-10-02T07:46:15.527Z,14.07
2017-10-02T07:47:15.967Z,14.07
2017-10-02T07:48:16.388Z,14.03
2017-10-02T07:49:16.820Z,14.10
2017-10-02T07:50:17.249Z,14.08
2017-10-02T07:51:17.688Z,14.07
2017-10-02T07:52:18.112Z,14.14
2017-10-02T07:53:18.554Z,14.04
2017-10-02T07:54:18.976Z,14.18
2017-10-02T07:55:19.406Z,14.14
2017-10-02T07:56:19.837Z,14.25
2017-10-02T07:57:20.269Z,14.15
2017-10-02T07:58:20.701Z,14.23
2017-10-02T07:59:21.133Z,14.23
2017-10-02T08:00:21.562Z,14.32
2017-10-02T08:01:21.991Z,14.37
2017-10-02T08:02:22.423Z,14.36
2017-10-02T08:03:22.863Z,14.47
2017-10-02T08:04:23.292Z,14.47
2017-10-02T08:05:23.718Z,14.55
2017-10-02T08:06:24.155Z,14.60
2017-10-02T08:07:24.585Z,14.59
2017-10-02T08:08:25.014Z,14.58
2017-10-02T08:09:25.446Z,14.58
2017-10-02T08:10:25.878Z,14.58
2017-10-02T08:11:26.313Z,14.66
2017-10-02T08:12:26.740Z,14.69
2017-10-02T08:13:27.173Z,14.70
2017-10-02T08:14:27.609Z,14.77
2017-10-02T08:15:28.034Z,14.72
2017-10-02T08:16:28.468Z,14.84
2017-10-02T08:17:28.900Z,14.92
2017-10-02T08:18:29.330Z,14.89
2017-10-02T08:19:29.767Z,14.85
2017-10-02T08:20:30.201Z,14.97
2017-10-02T08:21:30.622Z,14.99
2017-10-02T08:22:31.063Z,15.03
2017-10-02T08:23:31.492Z,15.14
2017-10-02T08:24:31.928Z,15.22
2017-10-02T08:25:32.358Z,15.27
2017-10-02T08:26:32.799Z,15.29
2017-10-02T08:27:33.229Z,15.47
2017-10-02T08:28:33.664Z,15.49
2017-10-02T08:29:34.094Z,15.59
2017-10-02T08:30:34.532Z,15.44
2017-10-02T08:31:34.965Z,15.49
2017-10-02T08:32:35.391Z,15.44
2017-10-02T08:33:35.840Z,15.47
2017-10-02T08:34:36.261Z,15.52
2017-10-02T08:35:36.699Z,15.49
2017-10-02T08:36:37.128Z,15.54
2017-10-02T08:37:37.567Z,15.46
2017-10-02T08:38:37.999Z,15.61
2017-10-02T08:39:38.433Z,15.47
2017-10-02T08:40:38.860Z,15.46
2017-10-02T08:41:39.297Z,15.61
2017-10-02T08:42:39.731Z,15.61
2017-10-02T08:43:40.167Z,15.72
2017-10-02T08:44:40.607Z,15.75
2017-10-02T08:45:41.033Z,15.80
2017-10-02T08:46:41.466Z,15.77
2017-10-02T08:47:41.902Z,15.91
2017-10-02T08:48:42.336Z,15.98
2017-10-02T08:49:42.780Z,16.10
2017-10-02T08:50:43.209Z,16.28
2017-10-02T08:51:43.640Z,16.51
2017-10-02T08:52:44.078Z,16.42
2017-10-02T08:53:44.511Z,16.56
2017-10-02T08:54:44.946Z,16.66
2017-10-02T08:55:45.415Z,16.56
2017-10-02T08:56:45.851Z,16.53
2017-10-02T08:57:46.294Z,16.43
2017-10-02T08:58:46.727Z,16.60
2017-10-02T08:59:47.159Z,16.64
2017-10-02T09:00:47.606Z,16.81
2017-10-02T09:01:48.031Z,16.84
2017-10-02T09:02:48.469Z,16.86
2017-10-02T09:03:48.904Z,16.78
2017-10-02T09:04:49.342Z,16.65
2017-10-02T09:05:49.789Z,16.78
2017-10-02T09:06:50.216Z,16.84
2017-10-02T09:07:50.648Z,16.86
2017-10-02T09:08:51.094Z,16.81
2017-10-02T09:09:51.526Z,16.76
2017-10-02T09:10:51.966Z,16.68
2017-10-02T09:11:52.399Z,16.60
2017-10-02T09:12:52.833Z,16.53
2017-10-02T09:13:54.268Z,16.50
2017-10-02T09:14:53.706Z,16.49
2017-10-02T09:15:54.149Z,16.41
2017-10-02T09:16:54.578Z,16.50
2017-10-02T09:17:55.013Z,16.49
2017-10-02T09:18:55.452Z,16.51
2017-10-02T09:19:55.888Z,16.54
2017-10-02T09:20:56.298Z,16.54
2017-10-02T09:21:56.748Z,16.51
2017-10-02T09:22:57.176Z,16.56
2017-10-02T09:23:57.629Z,16.71
2017-10-02T09:24:58.053Z,16.65
2017-10-02T09:25:58.465Z,16.64
2017-10-02T09:26:58.910Z,16.87
2017-10-02T09:27:59.354Z,16.83
2017-10-02T09:28:59.776Z,16.75
2017-10-02T09:30:00.231Z,16.83
2017-10-02T09:31:00.648Z,16.91
2017-10-02T09:32:01.086Z,16.94
2017-10-02T09:33:01.528Z,16.81
2017-10-02T09:34:01.942Z,16.87
2017-10-02T09:35:02.390Z,16.86
2017-10-02T09:36:02.819Z,16.90
2017-10-02T09:37:03.289Z,16.83
2017-10-02T09:38:03.709Z,16.96
2017-10-02T09:39:04.138Z,16.99
2017-10-02T09:40:04.562Z,17.02
2017-10-02T09:41:04.996Z,17.04
2017-10-02T09:42:05.420Z,17.19
2017-10-02T09:43:05.886Z,17.34
2017-10-02T09:44:06.292Z,17.39
2017-10-02T09:45:06.743Z,17.59
2017-10-02T09:46:07.160Z,17.59
2017-10-02T09:47:07.615Z,17.70
2017-10-02T09:48:08.038Z,17.63
2017-10-02T09:49:08.477Z,17.57
2017-10-02T09:50:08.904Z,17.68
2017-10-02T09:51:09.352Z,17.71
2017-10-02T09:52:09.777Z,17.89
2017-10-02T09:53:10.234Z,17.80
2017-10-02T09:54:10.653Z,17.79
2017-10-02T09:55:11.087Z,17.76
2017-10-02T09:56:11.529Z,17.78
2017-10-02T09:57:11.994Z,17.67
2017-10-02T09:58:12.384Z,17.65
2017-10-02T09:59:12.858Z,17.71
2017-10-02T10:00:13.266Z,17.76
2017-10-02T10:01:13.712Z,17.65
2017-10-02T10:02:14.137Z,17.76
2017-10-02T10:03:14.578Z,17.74
2017-10-02T10:04:15.017Z,17.78
2017-10-02T10:05:15.450Z,17.72
2017-10-02T10:06:15.909Z,17.74
2017-10-02T10:07:16.318Z,17.97
2017-10-02T10:08:16.772Z,18.05
2017-10-02T10:09:17.205Z,18.18
2017-10-02T10:10:17.630Z,18.10
2017-10-02T10:11:18.067Z,18.18
2017-10-02T10:12:18.510Z,18.04
2017-10-02T10:13:18.945Z,18.07
2017-10-02T10:14:19.378Z,18.08
2017-10-02T10:15:19.828Z,18.05
2017-10-02T10:16:20.265Z,18.07
2017-10-02T10:17:20.689Z,18.18
2017-10-02T10:18:21.160Z,18.05
2017-10-02T10:19:21.578Z,18.23
2017-10-02T10:20:22.017Z,18.22
2017-10-02T10:21:22.438Z,18.25
2017-10-02T10:22:22.876Z,18.25
2017-10-02T10:23:23.309Z,18.01
2017-10-02T10:24:23.774Z,18.07
2017-10-02T10:25:24.192Z,18.25
2017-10-02T10:26:24.646Z,18.31
2017-10-02T10:27:25.077Z,18.28
2017-10-02T10:28:25.532Z,18.26
2017-10-02T10:29:25.949Z,18.26
2017-10-02T10:30:26.381Z,18.45
2017-10-02T10:31:26.836Z,18.41
2017-10-02T10:32:27.260Z,18.35
2017-10-02T10:33:27.690Z,18.29
2017-10-02T10:34:28.127Z,18.25
2017-10-02T10:35:28.567Z,18.22
2017-10-02T10:36:28.994Z,18.23
2017-10-02T10:37:29.453Z,18.25
2017-10-02T10:38:29.868Z,18.08
2017-10-02T10:39:30.301Z,18.19
2017-10-02T10:40:30.739Z,18.33
2017-10-02T10:41:31.195Z,18.19
2017-10-02T10:42:31.616Z,17.95
2017-10-02T10:43:32.052Z,18.05
2017-10-02T10:44:32.505Z,18.11
2017-10-02T10:45:32.958Z,18.05
2017-10-02T10:46:33.385Z,18.01
2017-10-02T10:47:33.818Z,17.94
2017-10-02T10:48:34.249Z,17.90
2017-10-02T10:49:34.690Z,17.85
2017-10-02T10:50:35.118Z,17.80
2017-10-02T10:51:35.592Z,17.74
2017-10-02T10:52:36.001Z,17.76
2017-10-02T10:53:36.420Z,17.82
2017-10-02T10:54:36.903Z,17.92
2017-10-02T10:55:37.304Z,17.92
2017-10-02T10:56:37.744Z,17.86
2017-10-02T10:57:38.176Z,17.83
2017-10-02T10:58:38.612Z,17.97
2017-10-02T10:59:39.049Z,17.92
2017-10-02T11:00:39.473Z,17.76
2017-10-02T11:01:39.952Z,17.63
2017-10-02T11:02:40.335Z,17.63
2017-10-02T11:03:40.786Z,17.59
2017-10-02T11:04:41.204Z,17.34
2017-10-02T11:05:41.691Z,17.38
2017-10-02T11:06:42.080Z,17.27
2017-10-02T11:07:42.522Z,17.23
2017-10-02T11:08:42.965Z,17.16
2017-10-02T11:09:43.404Z,17.15
2017-10-02T11:10:43.834Z,17.29
2017-10-02T11:11:44.256Z,17.24
2017-10-02T11:12:44.682Z,17.29
2017-10-02T11:13:45.119Z,17.16
2017-10-02T11:14:45.576Z,17.12
2017-10-02T11:15:46.004Z,17.06
2017-10-02T11:16:46.420Z,17.05
2017-10-02T11:17:46.887Z,16.96
2017-10-02T11:18:47.308Z,16.89
2017-10-02T11:19:47.741Z,16.76
2017-10-02T11:20:48.176Z,16.61
2017-10-02T11:21:48.610Z,16.51
2017-10-02T11:22:49.053Z,16.46
2017-10-02T11:23:49.458Z,16.33
2017-10-02T11:24:49.896Z,16.23
2017-10-02T11:25:50.329Z,16.13
2017-10-02T11:26:50.777Z,16.16
2017-10-02T11:27:51.195Z,16.12
2017-10-02T11:28:51.635Z,15.97
2017-10-02T11:29:52.064Z,16.05
2017-10-02T11:30:52.522Z,15.98
2017-10-02T11:31:52.933Z,16.02
2017-10-02T11:32:53.361Z,15.94
2017-10-02T11:33:53.791Z,15.94
2017-10-02T11:34:54.272Z,15.90
2017-10-02T11:35:54.662Z,15.80
2017-10-02T11:36:55.108Z,15.75
2017-10-02T11:37:55.537Z,15.70
2017-10-02T11:38:55.965Z,15.64
2017-10-02T11:39:56.413Z,15.59
2017-10-02T11:40:56.833Z,15.54
2017-10-02T11:41:57.285Z,15.65
2017-10-02T11:42:57.695Z,15.57
2017-10-02T11:43:58.126Z,15.58
2017-10-02T11:44:58.573Z,15.61
2017-10-02T11:45:59.009Z,15.59
2017-10-02T11:46:59.428Z,15.43
2017-10-02T11:47:59.860Z,15.47
2017-10-02T11:49:00.319Z,15.42
2017-10-02T11:50:00.727Z,15.36
2017-10-02T11:51:01.167Z,15.37
2017-10-02T11:52:01.626Z,15.35
2017-10-02T11:53:02.017Z,15.25
2017-10-02T11:54:02.446Z,15.27
2017-10-02T11:55:02.926Z,15.29
2017-10-02T11:56:03.324Z,15.29
2017-10-02T11:57:03.787Z,15.19
2017-10-02T11:58:04.186Z,15.24
2017-10-02T11:59:04.610Z,15.24
2017-10-02T12:00:05.048Z,15.11
2017-10-02T12:01:05.486Z,15.19
2017-10-02T12:02:05.941Z,15.06
2017-10-02T12:03:06.347Z,15.11
2017-10-02T12:04:06.785Z,15.06
2017-10-02T12:05:07.263Z,15.02
2017-10-02T12:06:07.643Z,15.10
2017-10-02T12:07:08.114Z,14.94
2017-10-02T12:08:08.522Z,14.99
2017-10-02T12:09:08.937Z,14.92
2017-10-02T12:10:09.368Z,14.85
2017-10-02T12:11:09.799Z,14.85
2017-10-02T12:12:10.239Z,14.78
2017-10-02T12:13:10.707Z,14.84
2017-10-02T12:14:11.111Z,14.85
2017-10-02T12:15:11.546Z,14.77
2017-10-02T12:16:11.962Z,14.77
2017-10-02T12:17:12.400Z,14.72
2017-10-02T12:18:12.840Z,14.73
2017-10-02T12:19:13.260Z,14.78
2017-10-02T12:20:13.693Z,14.72
2017-10-02T12:21:14.139Z,14.72
2017-10-02T12:22:14.552Z,14.69
2017-10-02T12:23:14.997Z,14.73
2017-10-02T12:24:15.424Z,14.78
2017-10-02T12:25:15.840Z,14.78
2017-10-02T12:26:16.295Z,14.73
2017-10-02T12:27:16.714Z,14.73
2017-10-02T12:28:17.142Z,14.63
2017-10-02T12:29:17.585Z,14.77
2017-10-02T12:30:17.998Z,14.77
2017-10-02T12:31:18.430Z,14.68
2017-10-02T12:32:18.861Z,14.81
2017-10-02T12:33:19.293Z,14.66
2017-10-02T12:34:19.719Z,14.73
2017-10-02T12:35:20.157Z,14.70
2017-10-02T12:36:20.583Z,14.69
2017-10-02T12:37:21.016Z,14.72
2017-10-02T12:38:21.442Z,14.78
2017-10-02T12:39:21.876Z,14.73
2017-10-02T12:40:22.312Z,14.73
2017-10-02T12:41:22.739Z,14.78
2017-10-02T12:42:23.196Z,14.72
2017-10-02T12:43:23.604Z,14.72
2017-10-02T12:44:24.042Z,14.82
2017-10-02T12:45:24.462Z,14.92
2017-10-02T12:46:24.898Z,14.86
2017-10-02T12:47:25.326Z,14.96
2017-10-02T12:48:25.754Z,14.86
2017-10-02T12:49:26.205Z,14.91
2017-10-02T12:50:26.621Z,14.94
2017-10-02T12:51:27.052Z,14.85
2017-10-02T12:52:27.481Z,14.82
2017-10-02T12:53:27.922Z,14.73
2017-10-02T12:54:28.345Z,14.78
2017-10-02T12:55:28.780Z,14.85
2017-10-02T12:56:29.209Z,14.73
2017-10-02T12:57:29.641Z,14.73
2017-10-02T12:58:30.068Z,14.82